sensor_id;sensor_type;location;lat;lon;timestamp;P1;durP1;ratioP1;P2;durP2;ratioP2
8927;SDS011;4499;48.304;11.902;2023-06-14T00:00:03;4.43;;;3.60;;
8927;SDS011;4499;48.304;11.902;2023-06-14T00:02:34;6.20;;;3.80;;
8927;SDS011;4499;48.304;11.902;2023-06-14T00:05:02;6.57;;;3.57;;
8927;SDS011;4499;48.304;11.902;2023-06-14T00:07:35;5.47;;;3.93;;
8927;SDS011;4499;48.304;11.902;2023-06-14T00:10:05;6.77;;;3.80;;
8927;SDS011;4499;48.304;11.902;2023-06-14T00:12:34;4.53;;;3.63;;
8927;SDS011;4499;48.304;11.902;2023-06-14T00:15:03;6.70;;;4.30;;
8927;SDS011;4499;48.304;11.902;2023-06-14T00:17:32;4.53;;;3.80;;
8927;SDS011;4499;48.304;11.902;2023-06-14T00:20:01;4.53;;;3.50;;
8927;SDS011;4499;48.304;11.902;2023-06-14T00:22:31;5.33;;;3.80;;
8927;SDS011;4499;48.304;11.902;2023-06-14T00:25:01;6.83;;;3.87;;
8927;SDS011;4499;48.304;11.902;2023-06-14T00:27:49;5.67;;;3.90;;
8927;SDS011;4499;48.304;11.902;2023-06-14T00:30:17;4.90;;;4.00;;
8927;SDS011;4499;48.304;11.902;2023-06-14T00:32:45;5.47;;;4.07;;
8927;SDS011;4499;48.304;11.902;2023-06-14T00:35:14;6.73;;;4.13;;
8927;SDS011;4499;48.304;11.902;2023-06-14T00:37:42;6.43;;;3.73;;
8927;SDS011;4499;48.304;11.902;2023-06-14T00:40:11;5.30;;;3.60;;
8927;SDS011;4499;48.304;11.902;2023-06-14T00:42:40;7.10;;;3.80;;
8927;SDS011;4499;48.304;11.902;2023-06-14T00:45:08;5.53;;;3.90;;
8927;SDS011;4499;48.304;11.902;2023-06-14T00:47:37;5.87;;;4.70;;
8927;SDS011;4499;48.304;11.902;2023-06-14T00:50:08;7.70;;;3.90;;
8927;SDS011;4499;48.304;11.902;2023-06-14T00:52:37;4.73;;;3.90;;
8927;SDS011;4499;48.304;11.902;2023-06-14T00:55:06;4.90;;;3.70;;
8927;SDS011;4499;48.304;11.902;2023-06-14T00:57:36;6.60;;;4.00;;
8927;SDS011;4499;48.304;11.902;2023-06-14T01:00:06;7.03;;;3.80;;
8927;SDS011;4499;48.304;11.902;2023-06-14T01:02:36;6.13;;;3.67;;
8927;SDS011;4499;48.304;11.902;2023-06-14T01:05:05;7.20;;;4.20;;
8927;SDS011;4499;48.304;11.902;2023-06-14T01:07:38;6.30;;;4.43;;
8927;SDS011;4499;48.304;11.902;2023-06-14T01:10:21;5.60;;;3.77;;
8927;SDS011;4499;48.304;11.902;2023-06-14T01:12:58;6.43;;;4.07;;
8927;SDS011;4499;48.304;11.902;2023-06-14T01:15:32;5.77;;;3.90;;
8927;SDS011;4499;48.304;11.902;2023-06-14T01:18:03;6.47;;;3.97;;
8927;SDS011;4499;48.304;11.902;2023-06-14T01:20:32;5.13;;;4.03;;
8927;SDS011;4499;48.304;11.902;2023-06-14T01:23:05;4.73;;;4.00;;
8927;SDS011;4499;48.304;11.902;2023-06-14T01:25:33;5.73;;;3.90;;
8927;SDS011;4499;48.304;11.902;2023-06-14T01:28:02;6.57;;;4.60;;
8927;SDS011;4499;48.304;11.902;2023-06-14T01:30:36;6.23;;;4.50;;
8927;SDS011;4499;48.304;11.902;2023-06-14T01:33:09;6.90;;;4.27;;
8927;SDS011;4499;48.304;11.902;2023-06-14T01:35:37;5.50;;;4.40;;
8927;SDS011;4499;48.304;11.902;2023-06-14T01:38:07;6.53;;;4.10;;
8927;SDS011;4499;48.304;11.902;2023-06-14T01:40:35;5.20;;;4.20;;
8927;SDS011;4499;48.304;11.902;2023-06-14T01:43:04;4.77;;;4.10;;
8927;SDS011;4499;48.304;11.902;2023-06-14T01:45:33;6.63;;;4.30;;
8927;SDS011;4499;48.304;11.902;2023-06-14T01:48:02;6.20;;;4.33;;
8927;SDS011;4499;48.304;11.902;2023-06-14T01:50:31;5.77;;;3.60;;
8927;SDS011;4499;48.304;11.902;2023-06-14T01:52:59;5.53;;;4.10;;
8927;SDS011;4499;48.304;11.902;2023-06-14T01:55:29;5.10;;;4.13;;
8927;SDS011;4499;48.304;11.902;2023-06-14T01:58:03;8.07;;;4.67;;
8927;SDS011;4499;48.304;11.902;2023-06-14T02:00:32;5.40;;;4.63;;
8927;SDS011;4499;48.304;11.902;2023-06-14T02:03:00;6.70;;;4.30;;
8927;SDS011;4499;48.304;11.902;2023-06-14T02:05:30;5.60;;;4.40;;
8927;SDS011;4499;48.304;11.902;2023-06-14T02:07:58;9.57;;;4.50;;
8927;SDS011;4499;48.304;11.902;2023-06-14T02:10:26;5.57;;;4.30;;
8927;SDS011;4499;48.304;11.902;2023-06-14T02:12:56;5.50;;;4.50;;
8927;SDS011;4499;48.304;11.902;2023-06-14T02:15:24;5.93;;;4.83;;
8927;SDS011;4499;48.304;11.902;2023-06-14T02:18:00;4.33;;;3.73;;
8927;SDS011;4499;48.304;11.902;2023-06-14T02:20:29;5.47;;;4.17;;
8927;SDS011;4499;48.304;11.902;2023-06-14T02:22:58;5.33;;;4.13;;
8927;SDS011;4499;48.304;11.902;2023-06-14T02:25:27;5.23;;;4.20;;
8927;SDS011;4499;48.304;11.902;2023-06-14T02:27:57;6.03;;;4.70;;
8927;SDS011;4499;48.304;11.902;2023-06-14T02:30:25;5.70;;;4.27;;
8927;SDS011;4499;48.304;11.902;2023-06-14T02:32:53;6.40;;;4.37;;
8927;SDS011;4499;48.304;11.902;2023-06-14T02:35:22;5.40;;;4.30;;
8927;SDS011;4499;48.304;11.902;2023-06-14T02:37:52;7.07;;;4.37;;
8927;SDS011;4499;48.304;11.902;2023-06-14T02:40:21;6.13;;;4.20;;
8927;SDS011;4499;48.304;11.902;2023-06-14T02:42:49;5.23;;;4.40;;
8927;SDS011;4499;48.304;11.902;2023-06-14T02:45:19;7.60;;;4.57;;
8927;SDS011;4499;48.304;11.902;2023-06-14T02:47:48;7.17;;;4.37;;
8927;SDS011;4499;48.304;11.902;2023-06-14T02:50:16;5.60;;;4.50;;
8927;SDS011;4499;48.304;11.902;2023-06-14T02:52:44;6.37;;;4.80;;
8927;SDS011;4499;48.304;11.902;2023-06-14T02:55:13;7.00;;;4.30;;
8927;SDS011;4499;48.304;11.902;2023-06-14T02:57:42;7.17;;;4.30;;
8927;SDS011;4499;48.304;11.902;2023-06-14T03:00:10;6.47;;;4.40;;
8927;SDS011;4499;48.304;11.902;2023-06-14T03:02:42;6.43;;;4.57;;
8927;SDS011;4499;48.304;11.902;2023-06-14T03:05:10;9.17;;;4.40;;
8927;SDS011;4499;48.304;11.902;2023-06-14T03:07:39;6.70;;;4.87;;
8927;SDS011;4499;48.304;11.902;2023-06-14T03:10:11;6.87;;;4.30;;
8927;SDS011;4499;48.304;11.902;2023-06-14T03:12:41;7.27;;;4.40;;
8927;SDS011;4499;48.304;11.902;2023-06-14T03:15:09;6.27;;;4.60;;
8927;SDS011;4499;48.304;11.902;2023-06-14T03:17:39;6.97;;;4.50;;
8927;SDS011;4499;48.304;11.902;2023-06-14T03:20:13;7.47;;;5.10;;
8927;SDS011;4499;48.304;11.902;2023-06-14T03:22:42;9.20;;;4.63;;
8927;SDS011;4499;48.304;11.902;2023-06-14T03:25:12;7.97;;;4.57;;
8927;SDS011;4499;48.304;11.902;2023-06-14T03:27:41;8.27;;;4.77;;
8927;SDS011;4499;48.304;11.902;2023-06-14T03:30:09;8.17;;;4.80;;
8927;SDS011;4499;48.304;11.902;2023-06-14T03:32:38;4.93;;;4.43;;
8927;SDS011;4499;48.304;11.902;2023-06-14T03:35:07;8.70;;;5.13;;
8927;SDS011;4499;48.304;11.902;2023-06-14T03:37:37;8.80;;;5.10;;
8927;SDS011;4499;48.304;11.902;2023-06-14T03:40:06;7.43;;;5.43;;
8927;SDS011;4499;48.304;11.902;2023-06-14T03:42:35;6.93;;;4.40;;
8927;SDS011;4499;48.304;11.902;2023-06-14T03:45:03;5.87;;;4.70;;
8927;SDS011;4499;48.304;11.902;2023-06-14T03:47:32;6.30;;;5.00;;
8927;SDS011;4499;48.304;11.902;2023-06-14T03:50:01;8.17;;;4.60;;
8927;SDS011;4499;48.304;11.902;2023-06-14T03:52:29;6.73;;;4.60;;
8927;SDS011;4499;48.304;11.902;2023-06-14T03:55:00;7.30;;;5.20;;
8927;SDS011;4499;48.304;11.902;2023-06-14T03:57:31;7.77;;;4.60;;
8927;SDS011;4499;48.304;11.902;2023-06-14T04:00:00;6.77;;;4.27;;
8927;SDS011;4499;48.304;11.902;2023-06-14T04:02:30;6.80;;;4.37;;
8927;SDS011;4499;48.304;11.902;2023-06-14T04:04:59;7.77;;;4.87;;
8927;SDS011;4499;48.304;11.902;2023-06-14T04:07:30;6.77;;;4.57;;
8927;SDS011;4499;48.304;11.902;2023-06-14T04:09:58;6.30;;;4.53;;
8927;SDS011;4499;48.304;11.902;2023-06-14T04:12:28;8.50;;;4.80;;
8927;SDS011;4499;48.304;11.902;2023-06-14T04:14:56;7.53;;;4.40;;
8927;SDS011;4499;48.304;11.902;2023-06-14T04:17:37;7.70;;;4.40;;
8927;SDS011;4499;48.304;11.902;2023-06-14T04:20:06;8.13;;;4.70;;
8927;SDS011;4499;48.304;11.902;2023-06-14T04:22:36;6.43;;;4.60;;
8927;SDS011;4499;48.304;11.902;2023-06-14T04:25:04;6.83;;;4.80;;
8927;SDS011;4499;48.304;11.902;2023-06-14T04:27:35;6.30;;;4.57;;
8927;SDS011;4499;48.304;11.902;2023-06-14T04:30:03;9.30;;;4.63;;
8927;SDS011;4499;48.304;11.902;2023-06-14T04:32:34;8.63;;;5.20;;
8927;SDS011;4499;48.304;11.902;2023-06-14T04:35:06;7.70;;;5.07;;
8927;SDS011;4499;48.304;11.902;2023-06-14T04:37:35;8.07;;;5.43;;
8927;SDS011;4499;48.304;11.902;2023-06-14T04:40:06;5.50;;;4.63;;
8927;SDS011;4499;48.304;11.902;2023-06-14T04:42:39;6.73;;;4.50;;
8927;SDS011;4499;48.304;11.902;2023-06-14T04:45:11;8.33;;;4.80;;
8927;SDS011;4499;48.304;11.902;2023-06-14T04:47:40;7.63;;;4.80;;
8927;SDS011;4499;48.304;11.902;2023-06-14T04:50:08;5.40;;;4.40;;
8927;SDS011;4499;48.304;11.902;2023-06-14T04:52:39;6.30;;;4.40;;
8927;SDS011;4499;48.304;11.902;2023-06-14T04:55:08;6.00;;;4.50;;
8927;SDS011;4499;48.304;11.902;2023-06-14T04:57:36;5.10;;;4.10;;
8927;SDS011;4499;48.304;11.902;2023-06-14T05:00:09;7.60;;;4.37;;
8927;SDS011;4499;48.304;11.902;2023-06-14T05:02:39;5.60;;;4.23;;
8927;SDS011;4499;48.304;11.902;2023-06-14T05:05:07;6.73;;;4.40;;
8927;SDS011;4499;48.304;11.902;2023-06-14T05:07:36;8.90;;;4.10;;
8927;SDS011;4499;48.304;11.902;2023-06-14T05:10:08;8.77;;;4.03;;
8927;SDS011;4499;48.304;11.902;2023-06-14T05:12:36;5.73;;;3.83;;
8927;SDS011;4499;48.304;11.902;2023-06-14T05:15:05;5.17;;;3.60;;
8927;SDS011;4499;48.304;11.902;2023-06-14T05:17:36;5.43;;;3.60;;
8927;SDS011;4499;48.304;11.902;2023-06-14T05:20:07;8.00;;;3.83;;
8927;SDS011;4499;48.304;11.902;2023-06-14T05:22:37;10.80;;;4.17;;
8927;SDS011;4499;48.304;11.902;2023-06-14T05:25:05;5.67;;;3.70;;
8927;SDS011;4499;48.304;11.902;2023-06-14T05:27:34;6.57;;;3.77;;
8927;SDS011;4499;48.304;11.902;2023-06-14T05:30:04;4.77;;;3.50;;
8927;SDS011;4499;48.304;11.902;2023-06-14T05:32:33;7.40;;;3.80;;
8927;SDS011;4499;48.304;11.902;2023-06-14T05:35:03;5.97;;;3.70;;
8927;SDS011;4499;48.304;11.902;2023-06-14T05:37:32;8.03;;;3.90;;
8927;SDS011;4499;48.304;11.902;2023-06-14T05:40:00;7.40;;;4.13;;
8927;SDS011;4499;48.304;11.902;2023-06-14T05:42:30;5.80;;;3.80;;
8927;SDS011;4499;48.304;11.902;2023-06-14T05:44:58;5.50;;;3.90;;
8927;SDS011;4499;48.304;11.902;2023-06-14T05:47:26;5.37;;;3.50;;
8927;SDS011;4499;48.304;11.902;2023-06-14T05:49:55;6.33;;;3.90;;
8927;SDS011;4499;48.304;11.902;2023-06-14T05:52:24;8.63;;;3.83;;
8927;SDS011;4499;48.304;11.902;2023-06-14T05:54:52;8.40;;;3.50;;
8927;SDS011;4499;48.304;11.902;2023-06-14T05:57:20;6.43;;;3.87;;
8927;SDS011;4499;48.304;11.902;2023-06-14T05:59:49;5.57;;;3.40;;
8927;SDS011;4499;48.304;11.902;2023-06-14T06:02:17;13.43;;;3.27;;
8927;SDS011;4499;48.304;11.902;2023-06-14T06:04:46;6.80;;;3.50;;
8927;SDS011;4499;48.304;11.902;2023-06-14T06:07:14;5.83;;;3.50;;
8927;SDS011;4499;48.304;11.902;2023-06-14T06:09:43;4.77;;;3.10;;
8927;SDS011;4499;48.304;11.902;2023-06-14T06:12:12;5.73;;;3.50;;
8927;SDS011;4499;48.304;11.902;2023-06-14T06:14:40;6.03;;;3.20;;
8927;SDS011;4499;48.304;11.902;2023-06-14T06:17:09;7.53;;;3.10;;
8927;SDS011;4499;48.304;11.902;2023-06-14T06:19:37;6.23;;;3.10;;
8927;SDS011;4499;48.304;11.902;2023-06-14T06:22:06;3.70;;;2.80;;
8927;SDS011;4499;48.304;11.902;2023-06-14T06:24:34;6.57;;;3.10;;
8927;SDS011;4499;48.304;11.902;2023-06-14T06:27:04;7.50;;;3.07;;
8927;SDS011;4499;48.304;11.902;2023-06-14T06:29:34;4.47;;;3.00;;
8927;SDS011;4499;48.304;11.902;2023-06-14T06:32:02;5.57;;;3.20;;
8927;SDS011;4499;48.304;11.902;2023-06-14T06:34:31;3.53;;;2.90;;
8927;SDS011;4499;48.304;11.902;2023-06-14T06:36:59;6.67;;;3.00;;
8927;SDS011;4499;48.304;11.902;2023-06-14T06:39:27;8.13;;;3.07;;
8927;SDS011;4499;48.304;11.902;2023-06-14T06:41:55;7.40;;;3.20;;
8927;SDS011;4499;48.304;11.902;2023-06-14T06:44:25;5.03;;;3.17;;
8927;SDS011;4499;48.304;11.902;2023-06-14T06:46:54;7.50;;;2.67;;
8927;SDS011;4499;48.304;11.902;2023-06-14T06:49:22;5.67;;;2.77;;
8927;SDS011;4499;48.304;11.902;2023-06-14T06:52:00;4.20;;;3.03;;
8927;SDS011;4499;48.304;11.902;2023-06-14T06:54:29;5.43;;;3.00;;
8927;SDS011;4499;48.304;11.902;2023-06-14T06:56:57;6.30;;;2.92;;
8927;SDS011;4499;48.304;11.902;2023-06-14T06:59:27;4.60;;;3.10;;
8927;SDS011;4499;48.304;11.902;2023-06-14T07:01:56;6.95;;;2.97;;
8927;SDS011;4499;48.304;11.902;2023-06-14T07:04:25;5.15;;;2.97;;
8927;SDS011;4499;48.304;11.902;2023-06-14T07:06:53;4.07;;;2.83;;
8927;SDS011;4499;48.304;11.902;2023-06-14T07:09:22;4.97;;;3.00;;
8927;SDS011;4499;48.304;11.902;2023-06-14T07:11:50;5.63;;;2.92;;
8927;SDS011;4499;48.304;11.902;2023-06-14T07:14:19;5.85;;;2.70;;
8927;SDS011;4499;48.304;11.902;2023-06-14T07:16:50;6.88;;;2.92;;
8927;SDS011;4499;48.304;11.902;2023-06-14T07:19:19;4.07;;;2.97;;
8927;SDS011;4499;48.304;11.902;2023-06-14T07:21:47;3.55;;;3.03;;
8927;SDS011;4499;48.304;11.902;2023-06-14T07:24:15;5.68;;;3.38;;
8927;SDS011;4499;48.304;11.902;2023-06-14T07:26:43;5.43;;;2.92;;
8927;SDS011;4499;48.304;11.902;2023-06-14T07:29:11;4.07;;;2.80;;
8927;SDS011;4499;48.304;11.902;2023-06-14T07:31:40;5.65;;;3.00;;
8927;SDS011;4499;48.304;11.902;2023-06-14T07:34:10;6.38;;;3.30;;
8927;SDS011;4499;48.304;11.902;2023-06-14T07:36:38;3.30;;;3.00;;
8927;SDS011;4499;48.304;11.902;2023-06-14T07:39:06;3.92;;;3.00;;
8927;SDS011;4499;48.304;11.902;2023-06-14T07:41:38;6.05;;;3.20;;
8927;SDS011;4499;48.304;11.902;2023-06-14T07:44:06;4.30;;;2.92;;
8927;SDS011;4499;48.304;11.902;2023-06-14T07:46:34;5.57;;;3.13;;
8927;SDS011;4499;48.304;11.902;2023-06-14T07:49:02;5.35;;;3.00;;
8927;SDS011;4499;48.304;11.902;2023-06-14T07:51:32;6.50;;;3.08;;
8927;SDS011;4499;48.304;11.902;2023-06-14T07:54:03;5.57;;;2.95;;
8927;SDS011;4499;48.304;11.902;2023-06-14T07:56:33;3.72;;;2.92;;
8927;SDS011;4499;48.304;11.902;2023-06-14T07:59:02;5.20;;;3.20;;
8927;SDS011;4499;48.304;11.902;2023-06-14T08:01:30;3.97;;;3.00;;
8927;SDS011;4499;48.304;11.902;2023-06-14T08:03:59;5.32;;;3.00;;
8927;SDS011;4499;48.304;11.902;2023-06-14T08:06:28;4.43;;;2.97;;
8927;SDS011;4499;48.304;11.902;2023-06-14T08:08:58;5.05;;;2.70;;
8927;SDS011;4499;48.304;11.902;2023-06-14T08:11:27;7.65;;;2.72;;
8927;SDS011;4499;48.304;11.902;2023-06-14T08:13:55;5.40;;;3.00;;
8927;SDS011;4499;48.304;11.902;2023-06-14T08:16:23;7.75;;;3.20;;
8927;SDS011;4499;48.304;11.902;2023-06-14T08:18:52;5.45;;;2.90;;
8927;SDS011;4499;48.304;11.902;2023-06-14T08:21:20;4.47;;;3.10;;
8927;SDS011;4499;48.304;11.902;2023-06-14T08:23:48;5.05;;;3.20;;
8927;SDS011;4499;48.304;11.902;2023-06-14T08:26:21;5.38;;;2.92;;
8927;SDS011;4499;48.304;11.902;2023-06-14T08:28:49;4.38;;;3.30;;
8927;SDS011;4499;48.304;11.902;2023-06-14T08:31:17;5.90;;;3.05;;
8927;SDS011;4499;48.304;11.902;2023-06-14T08:33:46;3.78;;;2.85;;
8927;SDS011;4499;48.304;11.902;2023-06-14T08:36:14;4.72;;;2.97;;
8927;SDS011;4499;48.304;11.902;2023-06-14T08:38:43;5.78;;;2.85;;
8927;SDS011;4499;48.304;11.902;2023-06-14T08:41:11;6.35;;;3.03;;
8927;SDS011;4499;48.304;11.902;2023-06-14T08:43:49;6.22;;;3.10;;
8927;SDS011;4499;48.304;11.902;2023-06-14T08:46:17;3.95;;;2.67;;
8927;SDS011;4499;48.304;11.902;2023-06-14T08:48:49;4.10;;;2.90;;
8927;SDS011;4499;48.304;11.902;2023-06-14T08:51:18;5.30;;;2.95;;
8927;SDS011;4499;48.304;11.902;2023-06-14T08:53:51;5.05;;;3.03;;
8927;SDS011;4499;48.304;11.902;2023-06-14T08:56:24;4.80;;;3.20;;
8927;SDS011;4499;48.304;11.902;2023-06-14T08:58:55;13.03;;;3.37;;
8927;SDS011;4499;48.304;11.902;2023-06-14T09:01:27;5.97;;;3.17;;
8927;SDS011;4499;48.304;11.902;2023-06-14T09:03:57;3.87;;;2.90;;
8927;SDS011;4499;48.304;11.902;2023-06-14T09:06:26;6.80;;;3.00;;
8927;SDS011;4499;48.304;11.902;2023-06-14T09:08:54;3.80;;;2.92;;
8927;SDS011;4499;48.304;11.902;2023-06-14T09:11:24;4.38;;;2.88;;
8927;SDS011;4499;48.304;11.902;2023-06-14T09:13:52;6.20;;;3.30;;
8927;SDS011;4499;48.304;11.902;2023-06-14T09:16:22;4.68;;;3.00;;
8927;SDS011;4499;48.304;11.902;2023-06-14T09:18:50;6.43;;;2.55;;
8927;SDS011;4499;48.304;11.902;2023-06-14T09:21:18;5.30;;;2.70;;
8927;SDS011;4499;48.304;11.902;2023-06-14T09:23:47;2.92;;;2.60;;
8927;SDS011;4499;48.304;11.902;2023-06-14T09:26:17;4.38;;;2.80;;
8927;SDS011;4499;48.304;11.902;2023-06-14T09:28:47;6.20;;;2.70;;
8927;SDS011;4499;48.304;11.902;2023-06-14T09:31:17;6.43;;;2.88;;
8927;SDS011;4499;48.304;11.902;2023-06-14T09:33:48;5.38;;;2.97;;
8927;SDS011;4499;48.304;11.902;2023-06-14T09:36:18;5.63;;;2.80;;
8927;SDS011;4499;48.304;11.902;2023-06-14T09:38:52;5.78;;;2.80;;
8927;SDS011;4499;48.304;11.902;2023-06-14T09:41:27;5.63;;;3.08;;
8927;SDS011;4499;48.304;11.902;2023-06-14T09:43:59;3.83;;;2.78;;
8927;SDS011;4499;48.304;11.902;2023-06-14T09:46:34;4.82;;;2.83;;
8927;SDS011;4499;48.304;11.902;2023-06-14T09:49:05;4.47;;;2.80;;
8927;SDS011;4499;48.304;11.902;2023-06-14T09:51:34;5.80;;;3.00;;
8927;SDS011;4499;48.304;11.902;2023-06-14T09:54:04;6.45;;;2.78;;
8927;SDS011;4499;48.304;11.902;2023-06-14T09:56:34;5.53;;;2.83;;
8927;SDS011;4499;48.304;11.902;2023-06-14T09:59:05;4.07;;;3.10;;
8927;SDS011;4499;48.304;11.902;2023-06-14T10:01:34;5.00;;;2.90;;
8927;SDS011;4499;48.304;11.902;2023-06-14T10:04:08;4.28;;;2.80;;
8927;SDS011;4499;48.304;11.902;2023-06-14T10:06:39;4.13;;;2.90;;
8927;SDS011;4499;48.304;11.902;2023-06-14T10:09:08;6.05;;;2.90;;
8927;SDS011;4499;48.304;11.902;2023-06-14T10:11:37;3.13;;;2.50;;
8927;SDS011;4499;48.304;11.902;2023-06-14T10:14:10;5.45;;;2.80;;
8927;SDS011;4499;48.304;11.902;2023-06-14T10:16:42;4.85;;;3.08;;
8927;SDS011;4499;48.304;11.902;2023-06-14T10:19:20;4.97;;;2.80;;
8927;SDS011;4499;48.304;11.902;2023-06-14T10:21:55;6.85;;;3.10;;
8927;SDS011;4499;48.304;11.902;2023-06-14T10:24:29;3.38;;;2.88;;
8927;SDS011;4499;48.304;11.902;2023-06-14T10:27:02;5.60;;;2.90;;
8927;SDS011;4499;48.304;11.902;2023-06-14T10:29:31;4.18;;;2.78;;
8927;SDS011;4499;48.304;11.902;2023-06-14T10:31:59;5.00;;;2.70;;
8927;SDS011;4499;48.304;11.902;2023-06-14T10:34:31;5.63;;;2.88;;
8927;SDS011;4499;48.304;11.902;2023-06-14T10:37:00;5.20;;;2.88;;
8927;SDS011;4499;48.304;11.902;2023-06-14T10:39:31;5.38;;;2.97;;
8927;SDS011;4499;48.304;11.902;2023-06-14T10:42:01;4.95;;;2.95;;
8927;SDS011;4499;48.304;11.902;2023-06-14T10:44:38;7.82;;;2.88;;
8927;SDS011;4499;48.304;11.902;2023-06-14T10:47:11;5.10;;;3.03;;
8927;SDS011;4499;48.304;11.902;2023-06-14T10:49:51;3.95;;;2.72;;
8927;SDS011;4499;48.304;11.902;2023-06-14T10:52:22;3.08;;;2.72;;
8927;SDS011;4499;48.304;11.902;2023-06-14T10:57:46;3.95;;;2.90;;
8927;SDS011;4499;48.304;11.902;2023-06-14T11:00:19;5.90;;;2.88;;
8927;SDS011;4499;48.304;11.902;2023-06-14T11:05:57;3.80;;;2.70;;
8927;SDS011;4499;48.304;11.902;2023-06-14T11:11:46;5.10;;;2.63;;
8927;SDS011;4499;48.304;11.902;2023-06-14T11:14:15;6.93;;;2.95;;
8927;SDS011;4499;48.304;11.902;2023-06-14T11:16:47;6.43;;;3.10;;
8927;SDS011;4499;48.304;11.902;2023-06-14T11:19:16;6.90;;;2.83;;
8927;SDS011;4499;48.304;11.902;2023-06-14T11:21:48;4.77;;;2.83;;
8927;SDS011;4499;48.304;11.902;2023-06-14T11:24:16;4.97;;;2.83;;
8927;SDS011;4499;48.304;11.902;2023-06-14T11:26:46;4.93;;;2.70;;
8927;SDS011;4499;48.304;11.902;2023-06-14T11:29:15;4.13;;;3.00;;
8927;SDS011;4499;48.304;11.902;2023-06-14T11:31:44;6.87;;;2.90;;
8927;SDS011;4499;48.304;11.902;2023-06-14T11:34:12;4.50;;;3.07;;
8927;SDS011;4499;48.304;11.902;2023-06-14T11:36:41;4.53;;;3.23;;
8927;SDS011;4499;48.304;11.902;2023-06-14T11:39:11;6.37;;;3.00;;
8927;SDS011;4499;48.304;11.902;2023-06-14T11:41:40;2.97;;;2.60;;
8927;SDS011;4499;48.304;11.902;2023-06-14T11:44:09;5.00;;;3.00;;
8927;SDS011;4499;48.304;11.902;2023-06-14T11:46:39;5.70;;;2.70;;
8927;SDS011;4499;48.304;11.902;2023-06-14T11:49:07;5.37;;;3.00;;
8927;SDS011;4499;48.304;11.902;2023-06-14T11:51:36;6.97;;;3.00;;
8927;SDS011;4499;48.304;11.902;2023-06-14T11:54:05;6.30;;;2.90;;
8927;SDS011;4499;48.304;11.902;2023-06-14T11:56:36;6.03;;;2.70;;
8927;SDS011;4499;48.304;11.902;2023-06-14T11:59:04;4.40;;;3.00;;
8927;SDS011;4499;48.304;11.902;2023-06-14T12:01:35;5.57;;;2.87;;
8927;SDS011;4499;48.304;11.902;2023-06-14T12:04:05;6.37;;;2.93;;
8927;SDS011;4499;48.304;11.902;2023-06-14T12:06:34;5.07;;;3.20;;
8927;SDS011;4499;48.304;11.902;2023-06-14T12:09:06;5.17;;;3.10;;
8927;SDS011;4499;48.304;11.902;2023-06-14T12:11:41;6.63;;;3.10;;
8927;SDS011;4499;48.304;11.902;2023-06-14T12:14:10;5.40;;;3.17;;
8927;SDS011;4499;48.304;11.902;2023-06-14T12:16:38;5.43;;;2.80;;
8927;SDS011;4499;48.304;11.902;2023-06-14T12:19:08;5.13;;;3.00;;
8927;SDS011;4499;48.304;11.902;2023-06-14T12:21:39;7.03;;;2.80;;
8927;SDS011;4499;48.304;11.902;2023-06-14T12:24:07;6.47;;;3.00;;
8927;SDS011;4499;48.304;11.902;2023-06-14T12:26:39;5.73;;;3.07;;
8927;SDS011;4499;48.304;11.902;2023-06-14T12:29:10;6.30;;;3.10;;
8927;SDS011;4499;48.304;11.902;2023-06-14T12:31:39;7.43;;;3.27;;
8927;SDS011;4499;48.304;11.902;2023-06-14T12:34:08;3.60;;;2.90;;
8927;SDS011;4499;48.304;11.902;2023-06-14T12:36:37;5.23;;;2.87;;
8927;SDS011;4499;48.304;11.902;2023-06-14T12:39:10;4.60;;;3.00;;
8927;SDS011;4499;48.304;11.902;2023-06-14T12:41:39;5.03;;;3.23;;
8927;SDS011;4499;48.304;11.902;2023-06-14T12:44:10;3.73;;;2.97;;
8927;SDS011;4499;48.304;11.902;2023-06-14T12:46:38;4.90;;;2.83;;
8927;SDS011;4499;48.304;11.902;2023-06-14T12:49:08;4.30;;;3.30;;
8927;SDS011;4499;48.304;11.902;2023-06-14T12:51:37;4.00;;;2.90;;
8927;SDS011;4499;48.304;11.902;2023-06-14T12:54:06;3.43;;;2.90;;
8927;SDS011;4499;48.304;11.902;2023-06-14T12:56:34;4.93;;;3.00;;
8927;SDS011;4499;48.304;11.902;2023-06-14T12:59:03;6.53;;;3.03;;
8927;SDS011;4499;48.304;11.902;2023-06-14T13:01:34;5.43;;;2.90;;
8927;SDS011;4499;48.304;11.902;2023-06-14T13:04:02;8.10;;;3.20;;
8927;SDS011;4499;48.304;11.902;2023-06-14T13:06:31;7.57;;;3.60;;
8927;SDS011;4499;48.304;11.902;2023-06-14T13:09:00;5.53;;;3.30;;
8927;SDS011;4499;48.304;11.902;2023-06-14T13:11:30;5.57;;;3.03;;
8927;SDS011;4499;48.304;11.902;2023-06-14T13:13:58;5.20;;;2.87;;
8927;SDS011;4499;48.304;11.902;2023-06-14T13:16:40;6.33;;;3.10;;
8927;SDS011;4499;48.304;11.902;2023-06-14T13:19:08;4.07;;;3.23;;
8927;SDS011;4499;48.304;11.902;2023-06-14T13:21:36;6.13;;;3.27;;
8927;SDS011;4499;48.304;11.902;2023-06-14T13:24:05;6.20;;;3.30;;
8927;SDS011;4499;48.304;11.902;2023-06-14T13:26:34;5.77;;;3.30;;
8927;SDS011;4499;48.304;11.902;2023-06-14T13:29:02;3.73;;;2.80;;
8927;SDS011;4499;48.304;11.902;2023-06-14T13:31:31;4.97;;;3.03;;
8927;SDS011;4499;48.304;11.902;2023-06-14T13:34:01;5.17;;;3.03;;
8927;SDS011;4499;48.304;11.902;2023-06-14T13:36:29;3.87;;;3.10;;
8927;SDS011;4499;48.304;11.902;2023-06-14T13:38:57;3.97;;;2.87;;
8927;SDS011;4499;48.304;11.902;2023-06-14T13:41:27;5.23;;;2.80;;
8927;SDS011;4499;48.304;11.902;2023-06-14T13:43:58;4.30;;;2.87;;
8927;SDS011;4499;48.304;11.902;2023-06-14T13:46:26;4.07;;;3.30;;
8927;SDS011;4499;48.304;11.902;2023-06-14T13:48:55;5.53;;;3.07;;
8927;SDS011;4499;48.304;11.902;2023-06-14T13:51:25;5.43;;;2.90;;
8927;SDS011;4499;48.304;11.902;2023-06-14T13:53:53;5.70;;;3.13;;
8927;SDS011;4499;48.304;11.902;2023-06-14T13:56:22;4.87;;;3.03;;
8927;SDS011;4499;48.304;11.902;2023-06-14T13:58:50;4.20;;;3.10;;
8927;SDS011;4499;48.304;11.902;2023-06-14T14:01:19;3.70;;;2.90;;
8927;SDS011;4499;48.304;11.902;2023-06-14T14:03:47;4.83;;;3.03;;
8927;SDS011;4499;48.304;11.902;2023-06-14T14:06:16;3.00;;;2.70;;
8927;SDS011;4499;48.304;11.902;2023-06-14T14:08:46;6.50;;;3.50;;
8927;SDS011;4499;48.304;11.902;2023-06-14T14:11:15;4.17;;;3.10;;
8927;SDS011;4499;48.304;11.902;2023-06-14T14:13:44;4.23;;;2.70;;
8927;SDS011;4499;48.304;11.902;2023-06-14T14:16:12;4.17;;;2.90;;
8927;SDS011;4499;48.304;11.902;2023-06-14T14:18:41;4.83;;;3.10;;
8927;SDS011;4499;48.304;11.902;2023-06-14T14:21:09;4.70;;;3.07;;
8927;SDS011;4499;48.304;11.902;2023-06-14T14:23:37;4.13;;;2.77;;
8927;SDS011;4499;48.304;11.902;2023-06-14T14:26:08;4.93;;;3.07;;
8927;SDS011;4499;48.304;11.902;2023-06-14T14:28:37;6.13;;;3.00;;
8927;SDS011;4499;48.304;11.902;2023-06-14T14:31:05;6.10;;;2.90;;
8927;SDS011;4499;48.304;11.902;2023-06-14T14:33:33;5.57;;;3.37;;
8927;SDS011;4499;48.304;11.902;2023-06-14T14:36:02;5.63;;;3.00;;
8927;SDS011;4499;48.304;11.902;2023-06-14T14:38:30;8.60;;;3.23;;
8927;SDS011;4499;48.304;11.902;2023-06-14T14:40:59;8.80;;;3.30;;
8927;SDS011;4499;48.304;11.902;2023-06-14T14:43:28;4.40;;;3.00;;
8927;SDS011;4499;48.304;11.902;2023-06-14T14:45:58;5.70;;;3.20;;
8927;SDS011;4499;48.304;11.902;2023-06-14T14:48:26;5.33;;;3.10;;
8927;SDS011;4499;48.304;11.902;2023-06-14T14:50:54;4.17;;;3.23;;
8927;SDS011;4499;48.304;11.902;2023-06-14T14:53:22;5.70;;;3.10;;
8927;SDS011;4499;48.304;11.902;2023-06-14T14:55:51;4.90;;;3.03;;
8927;SDS011;4499;48.304;11.902;2023-06-14T14:58:19;5.40;;;3.17;;
8927;SDS011;4499;48.304;11.902;2023-06-14T15:00:48;7.87;;;3.20;;
8927;SDS011;4499;48.304;11.902;2023-06-14T15:03:17;5.47;;;3.23;;
8927;SDS011;4499;48.304;11.902;2023-06-14T15:05:45;7.73;;;3.40;;
8927;SDS011;4499;48.304;11.902;2023-06-14T15:08:13;5.73;;;3.33;;
8927;SDS011;4499;48.304;11.902;2023-06-14T15:10:41;7.00;;;3.07;;
8927;SDS011;4499;48.304;11.902;2023-06-14T15:13:10;7.10;;;3.10;;
8927;SDS011;4499;48.304;11.902;2023-06-14T15:15:38;4.10;;;2.80;;
8927;SDS011;4499;48.304;11.902;2023-06-14T15:18:08;6.90;;;3.13;;
8927;SDS011;4499;48.304;11.902;2023-06-14T15:20:36;7.00;;;3.37;;
8927;SDS011;4499;48.304;11.902;2023-06-14T15:23:04;5.07;;;3.10;;